sensor_id;sensor_type;location;lat;lon;timestamp;P1;durP1;ratioP1;P2;durP2;ratioP2
41667;SDS011;27356;50.920;5.350;2023-12-14T00:00:35;41.90;;;16.98;;
41667;SDS011;27356;50.920;5.350;2023-12-14T00:03:01;45.67;;;19.42;;
41667;SDS011;27356;50.920;5.350;2023-12-14T00:05:26;48.33;;;19.50;;
41667;SDS011;27356;50.920;5.350;2023-12-14T00:07:52;48.38;;;19.52;;
41667;SDS011;27356;50.920;5.350;2023-12-14T00:10:18;47.00;;;19.42;;
41667;SDS011;27356;50.920;5.350;2023-12-14T00:12:44;43.08;;;19.58;;
41667;SDS011;27356;50.920;5.350;2023-12-14T00:15:10;48.20;;;20.23;;
41667;SDS011;27356;50.920;5.350;2023-12-14T00:17:36;50.65;;;20.23;;
41667;SDS011;27356;50.920;5.350;2023-12-14T00:20:01;44.97;;;19.60;;
41667;SDS011;27356;50.920;5.350;2023-12-14T00:22:28;50.42;;;21.75;;
41667;SDS011;27356;50.920;5.350;2023-12-14T00:24:54;51.30;;;19.83;;
41667;SDS011;27356;50.920;5.350;2023-12-14T00:27:19;50.58;;;20.77;;
41667;SDS011;27356;50.920;5.350;2023-12-14T00:29:45;54.60;;;21.58;;
41667;SDS011;27356;50.920;5.350;2023-12-14T00:32:11;57.42;;;21.63;;
41667;SDS011;27356;50.920;5.350;2023-12-14T00:34:37;52.22;;;20.33;;
41667;SDS011;27356;50.920;5.350;2023-12-14T00:37:02;55.28;;;21.23;;
41667;SDS011;27356;50.920;5.350;2023-12-14T00:39:28;62.25;;;22.17;;
41667;SDS011;27356;50.920;5.350;2023-12-14T00:41:54;62.75;;;23.27;;
41667;SDS011;27356;50.920;5.350;2023-12-14T00:44:32;54.88;;;23.15;;
41667;SDS011;27356;50.920;5.350;2023-12-14T00:46:58;59.13;;;21.75;;
41667;SDS011;27356;50.920;5.350;2023-12-14T00:49:25;56.10;;;21.77;;
41667;SDS011;27356;50.920;5.350;2023-12-14T00:51:53;60.70;;;22.83;;
41667;SDS011;27356;50.920;5.350;2023-12-14T00:54:19;67.68;;;23.15;;
41667;SDS011;27356;50.920;5.350;2023-12-14T00:56:45;61.35;;;23.92;;
41667;SDS011;27356;50.920;5.350;2023-12-14T00:59:10;64.25;;;24.15;;
41667;SDS011;27356;50.920;5.350;2023-12-14T01:01:36;64.53;;;23.63;;
41667;SDS011;27356;50.920;5.350;2023-12-14T01:04:02;56.25;;;21.55;;
41667;SDS011;27356;50.920;5.350;2023-12-14T01:06:29;63.58;;;23.95;;
41667;SDS011;27356;50.920;5.350;2023-12-14T01:08:55;70.55;;;24.98;;
41667;SDS011;27356;50.920;5.350;2023-12-14T01:11:21;65.55;;;26.15;;
41667;SDS011;27356;50.920;5.350;2023-12-14T01:13:47;61.53;;;25.10;;
41667;SDS011;27356;50.920;5.350;2023-12-14T01:16:12;65.07;;;25.10;;
41667;SDS011;27356;50.920;5.350;2023-12-14T01:18:38;68.00;;;25.10;;
41667;SDS011;27356;50.920;5.350;2023-12-14T01:21:04;60.33;;;23.52;;
41667;SDS011;27356;50.920;5.350;2023-12-14T01:23:30;60.95;;;22.90;;
41667;SDS011;27356;50.920;5.350;2023-12-14T01:25:56;67.10;;;23.88;;
41667;SDS011;27356;50.920;5.350;2023-12-14T01:28:22;63.80;;;25.42;;
41667;SDS011;27356;50.920;5.350;2023-12-14T01:30:48;61.08;;;23.58;;
41667;SDS011;27356;50.920;5.350;2023-12-14T01:33:13;58.45;;;21.75;;
41667;SDS011;27356;50.920;5.350;2023-12-14T01:35:39;61.58;;;24.38;;
41667;SDS011;27356;50.920;5.350;2023-12-14T01:38:05;59.90;;;21.98;;
41667;SDS011;27356;50.920;5.350;2023-12-14T01:40:31;57.22;;;23.33;;
41667;SDS011;27356;50.920;5.350;2023-12-14T01:43:06;61.90;;;22.88;;
41667;SDS011;27356;50.920;5.350;2023-12-14T01:45:34;50.67;;;22.13;;
41667;SDS011;27356;50.920;5.350;2023-12-14T01:48:00;57.67;;;23.90;;
41667;SDS011;27356;50.920;5.350;2023-12-14T01:50:25;57.88;;;22.85;;
41667;SDS011;27356;50.920;5.350;2023-12-14T01:52:51;58.90;;;23.35;;
41667;SDS011;27356;50.920;5.350;2023-12-14T01:55:17;59.10;;;23.05;;
41667;SDS011;27356;50.920;5.350;2023-12-14T01:57:43;60.53;;;23.67;;
41667;SDS011;27356;50.920;5.350;2023-12-14T02:00:12;57.83;;;24.08;;
41667;SDS011;27356;50.920;5.350;2023-12-14T02:10:32;66.45;;;25.45;;
41667;SDS011;27356;50.920;5.350;2023-12-14T02:13:01;67.90;;;24.98;;
41667;SDS011;27356;50.920;5.350;2023-12-14T02:15:28;66.55;;;25.02;;
41667;SDS011;27356;50.920;5.350;2023-12-14T02:17:54;62.10;;;24.77;;
41667;SDS011;27356;50.920;5.350;2023-12-14T02:20:23;63.65;;;26.00;;
41667;SDS011;27356;50.920;5.350;2023-12-14T02:22:51;61.45;;;24.10;;
41667;SDS011;27356;50.920;5.350;2023-12-14T02:25:21;64.85;;;25.52;;
41667;SDS011;27356;50.920;5.350;2023-12-14T02:27:54;61.55;;;24.20;;
41667;SDS011;27356;50.920;5.350;2023-12-14T02:30:22;53.95;;;22.92;;
41667;SDS011;27356;50.920;5.350;2023-12-14T02:32:50;61.58;;;22.48;;
41667;SDS011;27356;50.920;5.350;2023-12-14T02:35:23;52.38;;;21.23;;
41667;SDS011;27356;50.920;5.350;2023-12-14T02:37:56;53.50;;;22.85;;
41667;SDS011;27356;50.920;5.350;2023-12-14T02:40:27;52.53;;;20.60;;
41667;SDS011;27356;50.920;5.350;2023-12-14T02:51:31;41.53;;;17.40;;
41667;SDS011;27356;50.920;5.350;2023-12-14T02:53:58;42.55;;;19.02;;
41667;SDS011;27356;50.920;5.350;2023-12-14T02:56:32;39.40;;;17.85;;
41667;SDS011;27356;50.920;5.350;2023-12-14T03:01:41;35.70;;;16.05;;
41667;SDS011;27356;50.920;5.350;2023-12-14T03:04:14;40.40;;;17.17;;
41667;SDS011;27356;50.920;5.350;2023-12-14T03:06:42;41.75;;;16.75;;
41667;SDS011;27356;50.920;5.350;2023-12-14T03:09:12;39.05;;;17.83;;
41667;SDS011;27356;50.920;5.350;2023-12-14T03:11:40;47.60;;;18.40;;
41667;SDS011;27356;50.920;5.350;2023-12-14T03:14:09;46.63;;;20.85;;
41667;SDS011;27356;50.920;5.350;2023-12-14T03:16:41;43.37;;;20.17;;
41667;SDS011;27356;50.920;5.350;2023-12-14T03:19:07;41.25;;;18.45;;
41667;SDS011;27356;50.920;5.350;2023-12-14T03:21:33;46.30;;;19.55;;
41667;SDS011;27356;50.920;5.350;2023-12-14T03:24:00;37.95;;;17.05;;
41667;SDS011;27356;50.920;5.350;2023-12-14T03:26:32;45.03;;;18.80;;
41667;SDS011;27356;50.920;5.350;2023-12-14T03:29:02;38.03;;;15.38;;
41667;SDS011;27356;50.920;5.350;2023-12-14T03:31:34;43.47;;;16.90;;
41667;SDS011;27356;50.920;5.350;2023-12-14T03:34:05;35.17;;;14.85;;
41667;SDS011;27356;50.920;5.350;2023-12-14T03:36:32;30.88;;;14.88;;
41667;SDS011;27356;50.920;5.350;2023-12-14T03:39:01;35.92;;;15.85;;
41667;SDS011;27356;50.920;5.350;2023-12-14T03:41:27;45.58;;;18.90;;
41667;SDS011;27356;50.920;5.350;2023-12-14T03:43:53;42.65;;;17.15;;
41667;SDS011;27356;50.920;5.350;2023-12-14T03:46:19;40.47;;;18.33;;
41667;SDS011;27356;50.920;5.350;2023-12-14T03:48:45;45.22;;;18.50;;
41667;SDS011;27356;50.920;5.350;2023-12-14T03:51:11;46.08;;;18.42;;
41667;SDS011;27356;50.920;5.350;2023-12-14T03:53:37;53.90;;;21.33;;
41667;SDS011;27356;50.920;5.350;2023-12-14T03:56:03;46.97;;;19.70;;
41667;SDS011;27356;50.920;5.350;2023-12-14T04:01:01;48.60;;;19.77;;
41667;SDS011;27356;50.920;5.350;2023-12-14T04:03:29;52.45;;;20.63;;
41667;SDS011;27356;50.920;5.350;2023-12-14T04:05:55;53.35;;;20.45;;
41667;SDS011;27356;50.920;5.350;2023-12-14T04:08:23;50.45;;;20.27;;
41667;SDS011;27356;50.920;5.350;2023-12-14T04:10:59;52.83;;;20.70;;
41667;SDS011;27356;50.920;5.350;2023-12-14T04:13:26;47.92;;;20.98;;
41667;SDS011;27356;50.920;5.350;2023-12-14T04:15:52;51.85;;;21.20;;
41667;SDS011;27356;50.920;5.350;2023-12-14T04:18:18;48.47;;;21.85;;
41667;SDS011;27356;50.920;5.350;2023-12-14T04:20:44;53.42;;;22.38;;
41667;SDS011;27356;50.920;5.350;2023-12-14T04:23:10;51.05;;;21.48;;
41667;SDS011;27356;50.920;5.350;2023-12-14T04:25:35;50.83;;;20.33;;
41667;SDS011;27356;50.920;5.350;2023-12-14T04:28:01;49.40;;;20.50;;
41667;SDS011;27356;50.920;5.350;2023-12-14T04:30:27;50.95;;;19.95;;
41667;SDS011;27356;50.920;5.350;2023-12-14T04:32:53;47.55;;;19.77;;
41667;SDS011;27356;50.920;5.350;2023-12-14T04:35:19;45.08;;;17.92;;
41667;SDS011;27356;50.920;5.350;2023-12-14T04:37:47;46.17;;;19.13;;
41667;SDS011;27356;50.920;5.350;2023-12-14T04:40:13;41.78;;;17.77;;
41667;SDS011;27356;50.920;5.350;2023-12-14T04:42:38;39.05;;;16.73;;
41667;SDS011;27356;50.920;5.350;2023-12-14T04:45:05;36.67;;;16.65;;
41667;SDS011;27356;50.920;5.350;2023-12-14T04:47:31;38.13;;;16.40;;
41667;SDS011;27356;50.920;5.350;2023-12-14T04:49:57;39.38;;;16.75;;
41667;SDS011;27356;50.920;5.350;2023-12-14T04:52:23;34.22;;;15.88;;
41667;SDS011;27356;50.920;5.350;2023-12-14T04:54:48;38.10;;;16.48;;
41667;SDS011;27356;50.920;5.350;2023-12-14T04:57:14;33.55;;;16.27;;
41667;SDS011;27356;50.920;5.350;2023-12-14T04:59:43;30.67;;;16.00;;
41667;SDS011;27356;50.920;5.350;2023-12-14T05:02:09;32.83;;;16.73;;
41667;SDS011;27356;50.920;5.350;2023-12-14T05:04:35;28.45;;;14.38;;
41667;SDS011;27356;50.920;5.350;2023-12-14T05:07:01;31.45;;;16.83;;
41667;SDS011;27356;50.920;5.350;2023-12-14T05:09:27;23.27;;;13.75;;
41667;SDS011;27356;50.920;5.350;2023-12-14T05:11:54;25.25;;;12.88;;
41667;SDS011;27356;50.920;5.350;2023-12-14T05:14:20;24.02;;;12.60;;
41667;SDS011;27356;50.920;5.350;2023-12-14T05:16:45;23.42;;;12.48;;
41667;SDS011;27356;50.920;5.350;2023-12-14T05:19:11;21.80;;;12.23;;
41667;SDS011;27356;50.920;5.350;2023-12-14T05:21:40;23.05;;;12.18;;
41667;SDS011;27356;50.920;5.350;2023-12-14T05:24:05;20.38;;;11.43;;
41667;SDS011;27356;50.920;5.350;2023-12-14T05:26:31;21.95;;;11.88;;
41667;SDS011;27356;50.920;5.350;2023-12-14T05:28:57;22.23;;;12.13;;
41667;SDS011;27356;50.920;5.350;2023-12-14T05:31:23;19.25;;;10.88;;
41667;SDS011;27356;50.920;5.350;2023-12-14T05:33:48;23.17;;;12.55;;
41667;SDS011;27356;50.920;5.350;2023-12-14T05:36:14;25.17;;;12.85;;
41667;SDS011;27356;50.920;5.350;2023-12-14T05:38:40;20.65;;;11.35;;
41667;SDS011;27356;50.920;5.350;2023-12-14T05:41:06;21.13;;;11.38;;
41667;SDS011;27356;50.920;5.350;2023-12-14T05:43:32;23.95;;;12.73;;
41667;SDS011;27356;50.920;5.350;2023-12-14T05:45:58;33.95;;;13.18;;
41667;SDS011;27356;50.920;5.350;2023-12-14T05:48:24;23.75;;;13.40;;
41667;SDS011;27356;50.920;5.350;2023-12-14T05:50:51;28.55;;;14.60;;
41667;SDS011;27356;50.920;5.350;2023-12-14T05:53:17;23.85;;;12.80;;
41667;SDS011;27356;50.920;5.350;2023-12-14T05:55:43;24.92;;;13.77;;
41667;SDS011;27356;50.920;5.350;2023-12-14T05:58:09;26.50;;;13.70;;
41667;SDS011;27356;50.920;5.350;2023-12-14T06:00:35;25.20;;;13.73;;
41667;SDS011;27356;50.920;5.350;2023-12-14T06:03:04;28.17;;;14.10;;
41667;SDS011;27356;50.920;5.350;2023-12-14T06:05:31;28.67;;;14.70;;
41667;SDS011;27356;50.920;5.350;2023-12-14T06:07:57;24.58;;;14.57;;
41667;SDS011;27356;50.920;5.350;2023-12-14T06:10:23;24.50;;;14.07;;
41667;SDS011;27356;50.920;5.350;2023-12-14T06:12:49;21.55;;;12.75;;
41667;SDS011;27356;50.920;5.350;2023-12-14T06:15:16;27.05;;;15.13;;
41667;SDS011;27356;50.920;5.350;2023-12-14T06:17:42;24.90;;;13.80;;
41667;SDS011;27356;50.920;5.350;2023-12-14T06:20:09;24.15;;;14.13;;
41667;SDS011;27356;50.920;5.350;2023-12-14T06:22:38;29.55;;;15.73;;
41667;SDS011;27356;50.920;5.350;2023-12-14T06:25:04;25.17;;;13.57;;
41667;SDS011;27356;50.920;5.350;2023-12-14T06:31:27;26.27;;;14.98;;
41667;SDS011;27356;50.920;5.350;2023-12-14T06:34:21;24.60;;;13.95;;
41667;SDS011;27356;50.920;5.350;2023-12-14T06:36:53;23.75;;;14.77;;
41667;SDS011;27356;50.920;5.350;2023-12-14T06:42:23;21.63;;;13.82;;
41667;SDS011;27356;50.920;5.350;2023-12-14T06:45:01;24.90;;;13.93;;
41667;SDS011;27356;50.920;5.350;2023-12-14T06:47:30;29.98;;;14.50;;
41667;SDS011;27356;50.920;5.350;2023-12-14T06:49:58;24.25;;;14.23;;
41667;SDS011;27356;50.920;5.350;2023-12-14T06:52:25;23.17;;;14.73;;
41667;SDS011;27356;50.920;5.350;2023-12-14T06:54:56;22.08;;;13.40;;
41667;SDS011;27356;50.920;5.350;2023-12-14T07:02:57;25.27;;;15.10;;
41667;SDS011;27356;50.920;5.350;2023-12-14T07:05:26;25.20;;;14.70;;
41667;SDS011;27356;50.920;5.350;2023-12-14T07:07:53;26.80;;;15.60;;
41667;SDS011;27356;50.920;5.350;2023-12-14T07:10:24;23.20;;;14.10;;
41667;SDS011;27356;50.920;5.350;2023-12-14T07:13:00;26.15;;;14.80;;
41667;SDS011;27356;50.920;5.350;2023-12-14T07:15:35;21.25;;;13.10;;
41667;SDS011;27356;50.920;5.350;2023-12-14T07:18:06;21.77;;;13.25;;
41667;SDS011;27356;50.920;5.350;2023-12-14T07:24:22;24.50;;;13.73;;
41667;SDS011;27356;50.920;5.350;2023-12-14T07:27:14;22.02;;;13.23;;
41667;SDS011;27356;50.920;5.350;2023-12-14T07:29:52;25.00;;;13.73;;
41667;SDS011;27356;50.920;5.350;2023-12-14T07:32:20;25.25;;;13.57;;
41667;SDS011;27356;50.920;5.350;2023-12-14T07:34:52;20.40;;;12.73;;
41667;SDS011;27356;50.920;5.350;2023-12-14T07:37:19;22.65;;;13.80;;
41667;SDS011;27356;50.920;5.350;2023-12-14T07:39:45;23.13;;;13.93;;
41667;SDS011;27356;50.920;5.350;2023-12-14T07:42:11;24.50;;;14.32;;
41667;SDS011;27356;50.920;5.350;2023-12-14T07:44:44;24.92;;;13.13;;
41667;SDS011;27356;50.920;5.350;2023-12-14T07:47:10;25.85;;;14.43;;
41667;SDS011;27356;50.920;5.350;2023-12-14T07:49:36;24.70;;;12.75;;
41667;SDS011;27356;50.920;5.350;2023-12-14T07:52:01;22.33;;;13.65;;
41667;SDS011;27356;50.920;5.350;2023-12-14T07:54:27;24.63;;;13.10;;
41667;SDS011;27356;50.920;5.350;2023-12-14T07:56:54;25.60;;;14.90;;
41667;SDS011;27356;50.920;5.350;2023-12-14T07:59:19;30.33;;;15.02;;
41667;SDS011;27356;50.920;5.350;2023-12-14T08:01:46;25.83;;;15.30;;
41667;SDS011;27356;50.920;5.350;2023-12-14T08:04:12;26.60;;;14.20;;
41667;SDS011;27356;50.920;5.350;2023-12-14T08:06:37;26.58;;;15.60;;
41667;SDS011;27356;50.920;5.350;2023-12-14T08:09:06;24.48;;;14.77;;
41667;SDS011;27356;50.920;5.350;2023-12-14T08:11:32;24.77;;;15.13;;
41667;SDS011;27356;50.920;5.350;2023-12-14T08:13:58;28.58;;;16.67;;
41667;SDS011;27356;50.920;5.350;2023-12-14T08:16:24;30.70;;;17.33;;
41667;SDS011;27356;50.920;5.350;2023-12-14T08:18:50;29.42;;;17.02;;
41667;SDS011;27356;50.920;5.350;2023-12-14T08:21:16;28.95;;;15.88;;
41667;SDS011;27356;50.920;5.350;2023-12-14T08:23:43;30.85;;;17.05;;
41667;SDS011;27356;50.920;5.350;2023-12-14T08:26:08;31.70;;;17.48;;
41667;SDS011;27356;50.920;5.350;2023-12-14T08:28:36;30.92;;;17.42;;
41667;SDS011;27356;50.920;5.350;2023-12-14T08:31:02;31.55;;;16.58;;
41667;SDS011;27356;50.920;5.350;2023-12-14T08:33:29;33.08;;;17.25;;
41667;SDS011;27356;50.920;5.350;2023-12-14T08:35:55;35.08;;;18.55;;
41667;SDS011;27356;50.920;5.350;2023-12-14T08:38:24;29.77;;;16.20;;
41667;SDS011;27356;50.920;5.350;2023-12-14T08:40:50;31.48;;;15.50;;
41667;SDS011;27356;50.920;5.350;2023-12-14T08:43:19;28.30;;;16.15;;
41667;SDS011;27356;50.920;5.350;2023-12-14T08:45:45;35.28;;;17.33;;
41667;SDS011;27356;50.920;5.350;2023-12-14T08:48:11;27.80;;;15.98;;
41667;SDS011;27356;50.920;5.350;2023-12-14T08:50:37;26.98;;;15.48;;
41667;SDS011;27356;50.920;5.350;2023-12-14T08:53:03;31.13;;;15.48;;
41667;SDS011;27356;50.920;5.350;2023-12-14T08:55:30;31.75;;;15.93;;
41667;SDS011;27356;50.920;5.350;2023-12-14T08:57:56;28.95;;;15.90;;
41667;SDS011;27356;50.920;5.350;2023-12-14T09:00:26;24.88;;;14.63;;
41667;SDS011;27356;50.920;5.350;2023-12-14T09:02:52;26.33;;;15.13;;
41667;SDS011;27356;50.920;5.350;2023-12-14T09:05:18;29.10;;;16.33;;
41667;SDS011;27356;50.920;5.350;2023-12-14T09:07:46;28.73;;;15.10;;
41667;SDS011;27356;50.920;5.350;2023-12-14T09:10:12;30.45;;;15.35;;
41667;SDS011;27356;50.920;5.350;2023-12-14T09:12:38;28.13;;;14.05;;
41667;SDS011;27356;50.920;5.350;2023-12-14T09:15:04;29.08;;;16.23;;
41667;SDS011;27356;50.920;5.350;2023-12-14T09:17:30;32.20;;;16.75;;
41667;SDS011;27356;50.920;5.350;2023-12-14T09:19:59;27.58;;;15.75;;
41667;SDS011;27356;50.920;5.350;2023-12-14T09:24:58;25.52;;;15.18;;
41667;SDS011;27356;50.920;5.350;2023-12-14T09:30:29;26.95;;;14.63;;
41667;SDS011;27356;50.920;5.350;2023-12-14T09:32:57;28.73;;;15.32;;
41667;SDS011;27356;50.920;5.350;2023-12-14T09:35:26;28.25;;;14.60;;
41667;SDS011;27356;50.920;5.350;2023-12-14T09:43:45;27.20;;;16.15;;
41667;SDS011;27356;50.920;5.350;2023-12-14T09:46:11;24.35;;;14.27;;
41667;SDS011;27356;50.920;5.350;2023-12-14T09:51:15;27.80;;;15.07;;
41667;SDS011;27356;50.920;5.350;2023-12-14T09:54:02;25.75;;;12.88;;
41667;SDS011;27356;50.920;5.350;2023-12-14T09:56:35;23.25;;;14.30;;
41667;SDS011;27356;50.920;5.350;2023-12-14T10:56:21;17.92;;;10.85;;
41667;SDS011;27356;50.920;5.350;2023-12-14T10:58:54;20.80;;;11.65;;
41667;SDS011;27356;50.920;5.350;2023-12-14T11:01:26;17.63;;;10.73;;
41667;SDS011;27356;50.920;5.350;2023-12-14T11:08:08;11.57;;;6.10;;
41667;SDS011;27356;50.920;5.350;2023-12-14T11:14:02;8.25;;;5.43;;
41667;SDS011;27356;50.920;5.350;2023-12-14T11:16:56;8.25;;;5.03;;
41667;SDS011;27356;50.920;5.350;2023-12-14T11:19:44;11.75;;;5.97;;
41667;SDS011;27356;50.920;5.350;2023-12-14T11:22:13;13.35;;;5.80;;
41667;SDS011;27356;50.920;5.350;2023-12-14T11:24:52;12.73;;;5.20;;
41667;SDS011;27356;50.920;5.350;2023-12-14T11:27:30;7.78;;;5.15;;
41667;SDS011;27356;50.920;5.350;2023-12-14T11:29:56;7.82;;;4.97;;
41667;SDS011;27356;50.920;5.350;2023-12-14T11:34:53;9.90;;;4.38;;
41667;SDS011;27356;50.920;5.350;2023-12-14T11:37:22;5.75;;;3.92;;
41667;SDS011;27356;50.920;5.350;2023-12-14T11:39:49;6.68;;;4.25;;
41667;SDS011;27356;50.920;5.350;2023-12-14T11:42:18;4.47;;;3.75;;
41667;SDS011;27356;50.920;5.350;2023-12-14T11:44:44;6.97;;;4.38;;
41667;SDS011;27356;50.920;5.350;2023-12-14T11:47:10;5.45;;;4.30;;
41667;SDS011;27356;50.920;5.350;2023-12-14T11:49:37;10.27;;;5.60;;
41667;SDS011;27356;50.920;5.350;2023-12-14T11:52:03;8.88;;;4.53;;
41667;SDS011;27356;50.920;5.350;2023-12-14T11:54:32;6.97;;;4.95;;
41667;SDS011;27356;50.920;5.350;2023-12-14T11:56:57;9.38;;;5.15;;
41667;SDS011;27356;50.920;5.350;2023-12-14T11:59:26;8.43;;;5.47;;
41667;SDS011;27356;50.920;5.350;2023-12-14T12:01:56;9.05;;;5.28;;
41667;SDS011;27356;50.920;5.350;2023-12-14T12:04:23;9.35;;;5.35;;
41667;SDS011;27356;50.920;5.350;2023-12-14T12:06:49;11.80;;;5.80;;
41667;SDS011;27356;50.920;5.350;2023-12-14T12:09:33;10.13;;;5.75;;
41667;SDS011;27356;50.920;5.350;2023-12-14T12:12:07;9.98;;;5.72;;
41667;SDS011;27356;50.920;5.350;2023-12-14T12:14:34;12.27;;;5.45;;
41667;SDS011;27356;50.920;5.350;2023-12-14T12:17:01;6.50;;;5.07;;
41667;SDS011;27356;50.920;5.350;2023-12-14T12:19:33;9.57;;;5.65;;
41667;SDS011;27356;50.920;5.350;2023-12-14T12:22:02;8.90;;;5.55;;
41667;SDS011;27356;50.920;5.350;2023-12-14T12:24:29;10.10;;;5.47;;
41667;SDS011;27356;50.920;5.350;2023-12-14T12:26:54;10.70;;;5.43;;
41667;SDS011;27356;50.920;5.350;2023-12-14T12:29:22;9.48;;;5.72;;
41667;SDS011;27356;50.920;5.350;2023-12-14T12:31:48;9.63;;;5.80;;
41667;SDS011;27356;50.920;5.350;2023-12-14T12:34:14;7.38;;;5.60;;
41667;SDS011;27356;50.920;5.350;2023-12-14T12:36:43;10.43;;;6.10;;
41667;SDS011;27356;50.920;5.350;2023-12-14T12:39:11;9.65;;;5.47;;
41667;SDS011;27356;50.920;5.350;2023-12-14T12:41:36;8.57;;;5.82;;
41667;SDS011;27356;50.920;5.350;2023-12-14T12:44:03;7.50;;;5.57;;
41667;SDS011;27356;50.920;5.350;2023-12-14T12:46:35;10.10;;;6.15;;
41667;SDS011;27356;50.920;5.350;2023-12-14T12:49:01;9.55;;;6.40;;
41667;SDS011;27356;50.920;5.350;2023-12-14T12:51:29;12.55;;;7.00;;
41667;SDS011;27356;50.920;5.350;2023-12-14T12:53:56;8.75;;;5.88;;
41667;SDS011;27356;50.920;5.350;2023-12-14T12:56:26;9.95;;;7.25;;
41667;SDS011;27356;50.920;5.350;2023-12-14T12:58:53;9.85;;;7.60;;
41667;SDS011;27356;50.920;5.350;2023-12-14T13:01:22;9.93;;;7.50;;
41667;SDS011;27356;50.920;5.350;2023-12-14T13:03:53;11.65;;;8.18;;
41667;SDS011;27356;50.920;5.350;2023-12-14T13:06:20;15.20;;;7.63;;
41667;SDS011;27356;50.920;5.350;2023-12-14T13:08:46;8.10;;;6.95;;
41667;SDS011;27356;50.920;5.350;2023-12-14T13:11:12;9.15;;;7.28;;
41667;SDS011;27356;50.920;5.350;2023-12-14T13:13:39;10.63;;;6.90;;
41667;SDS011;27356;50.920;5.350;2023-12-14T13:16:05;9.38;;;6.30;;
41667;SDS011;27356;50.920;5.350;2023-12-14T13:18:31;7.78;;;6.00;;
41667;SDS011;27356;50.920;5.350;2023-12-14T13:20:57;7.53;;;5.78;;
41667;SDS011;27356;50.920;5.350;2023-12-14T13:23:23;9.20;;;6.75;;
41667;SDS011;27356;50.920;5.350;2023-12-14T13:25:49;10.77;;;6.82;;
41667;SDS011;27356;50.920;5.350;2023-12-14T13:28:25;9.40;;;6.68;;
41667;SDS011;27356;50.920;5.350;2023-12-14T13:30:51;8.63;;;6.30;;
41667;SDS011;27356;50.920;5.350;2023-12-14T13:33:17;9.48;;;5.97;;
41667;SDS011;27356;50.920;5.350;2023-12-14T13:35:43;8.82;;;5.75;;
41667;SDS011;27356;50.920;5.350;2023-12-14T13:38:12;7.80;;;5.72;;
41667;SDS011;27356;50.920;5.350;2023-12-14T13:40:38;8.73;;;5.60;;
41667;SDS011;27356;50.920;5.350;2023-12-14T13:43:04;9.32;;;5.57;;
41667;SDS011;27356;50.920;5.350;2023-12-14T13:45:35;8.43;;;5.85;;
41667;SDS011;27356;50.920;5.350;2023-12-14T13:48:02;9.45;;;5.93;;
41667;SDS011;27356;50.920;5.350;2023-12-14T13:50:28;8.23;;;5.82;;
41667;SDS011;27356;50.920;5.350;2023-12-14T13:52:53;10.13;;;5.68;;
41667;SDS011;27356;50.920;5.350;2023-12-14T13:55:20;12.55;;;6.22;;
41667;SDS011;27356;50.920;5.350;2023-12-14T13:57:47;9.68;;;6.75;;
41667;SDS011;27356;50.920;5.350;2023-12-14T14:00:14;7.75;;;5.57;;
41667;SDS011;27356;50.920;5.350;2023-12-14T14:02:41;8.85;;;5.68;;
41667;SDS011;27356;50.920;5.350;2023-12-14T14:05:07;8.25;;;6.15;;
41667;SDS011;27356;50.920;5.350;2023-12-14T14:07:33;10.90;;;6.22;;
41667;SDS011;27356;50.920;5.350;2023-12-14T14:09:59;12.30;;;6.20;;
41667;SDS011;27356;50.920;5.350;2023-12-14T14:12:24;11.02;;;6.32;;
41667;SDS011;27356;50.920;5.350;2023-12-14T14:14:51;10.93;;;6.05;;
41667;SDS011;27356;50.920;5.350;2023-12-14T14:17:19;10.07;;;5.85;;
41667;SDS011;27356;50.920;5.350;2023-12-14T14:19:45;9.05;;;5.70;;
41667;SDS011;27356;50.920;5.350;2023-12-14T14:22:11;9.48;;;6.18;;
41667;SDS011;27356;50.920;5.350;2023-12-14T14:24:37;13.60;;;6.30;;
41667;SDS011;27356;50.920;5.350;2023-12-14T14:27:03;10.88;;;6.43;;
41667;SDS011;27356;50.920;5.350;2023-12-14T14:29:29;11.38;;;6.07;;
41667;SDS011;27356;50.920;5.350;2023-12-14T14:31:55;12.75;;;6.25;;
41667;SDS011;27356;50.920;5.350;2023-12-14T14:34:21;11.80;;;6.70;;
41667;SDS011;27356;50.920;5.350;2023-12-14T14:36:47;8.30;;;6.18;;
41667;SDS011;27356;50.920;5.350;2023-12-14T14:39:13;13.07;;;6.05;;
41667;SDS011;27356;50.920;5.350;2023-12-14T14:41:38;13.23;;;6.38;;
41667;SDS011;27356;50.920;5.350;2023-12-14T14:44:04;9.25;;;6.38;;
41667;SDS011;27356;50.920;5.350;2023-12-14T14:46:30;11.10;;;6.30;;
41667;SDS011;27356;50.920;5.350;2023-12-14T14:48:56;13.88;;;5.45;;
41667;SDS011;27356;50.920;5.350;2023-12-14T14:51:21;9.18;;;6.20;;
41667;SDS011;27356;50.920;5.350;2023-12-14T14:53:50;9.60;;;6.40;;
41667;SDS011;27356;50.920;5.350;2023-12-14T14:56:16;11.45;;;6.57;;
41667;SDS011;27356;50.920;5.350;2023-12-14T14:58:41;13.15;;;6.20;;
41667;SDS011;27356;50.920;5.350;2023-12-14T15:01:10;11.45;;;6.63;;
41667;SDS011;27356;50.920;5.350;2023-12-14T15:03:36;17.40;;;7.50;;
41667;SDS011;27356;50.920;5.350;2023-12-14T15:06:02;10.82;;;6.55;;
41667;SDS011;27356;50.920;5.350;2023-12-14T15:08:28;15.82;;;6.97;;
41667;SDS011;27356;50.920;5.350;2023-12-14T15:10:53;13.07;;;7.00;;
41667;SDS011;27356;50.920;5.350;2023-12-14T15:13:20;15.25;;;7.15;;
41667;SDS011;27356;50.920;5.350;2023-12-14T15:15:47;17.50;;;9.38;;
41667;SDS011;27356;50.920;5.350;2023-12-14T15:18:13;14.25;;;7.53;;
41667;SDS011;27356;50.920;5.350;2023-12-14T15:20:38;13.98;;;8.10;;
41667;SDS011;27356;50.920;5.350;2023-12-14T15:23:05;14.43;;;7.40;;
41667;SDS011;27356;50.920;5.350;2023-12-14T15:25:33;14.57;;;8.07;;
41667;SDS011;27356;50.920;5.350;2023-12-14T15:27:59;17.10;;;8.10;;
41667;SDS011;27356;50.920;5.350;2023-12-14T15:30:25;15.93;;;7.43;;
41667;SDS011;27356;50.920;5.350;2023-12-14T15:32:51;12.02;;;7.25;;
41667;SDS011;27356;50.920;5.350;2023-12-14T15:35:17;16.13;;;7.25;;
41667;SDS011;27356;50.920;5.350;2023-12-14T15:37:42;12.77;;;6.97;;
41667;SDS011;27356;50.920;5.350;2023-12-14T15:40:09;13.65;;;8.32;;
41667;SDS011;27356;50.920;5.350;2023-12-14T15:42:35;17.55;;;7.60;;
41667;SDS011;27356;50.920;5.350;2023-12-14T15:45:01;14.48;;;7.47;;
41667;SDS011;27356;50.920;5.350;2023-12-14T15:47:27;13.32;;;7.88;;
41667;SDS011;27356;50.920;5.350;2023-12-14T15:49:53;18.80;;;8.43;;
41667;SDS011;27356;50.920;5.350;2023-12-14T15:52:19;17.00;;;8.60;;
41667;SDS011;27356;50.920;5.350;2023-12-14T15:54:45;14.80;;;8.63;;
41667;SDS011;27356;50.920;5.350;2023-12-14T15:57:10;13.07;;;8.18;;
41667;SDS011;27356;50.920;5.350;2023-12-14T15:59:36;13.25;;;7.32;;
41667;SDS011;27356;50.920;5.350;2023-12-14T16:02:02;17.67;;;8.60;;
41667;SDS011;27356;50.920;5.350;2023-12-14T16:04:28;15.38;;;7.95;;
41667;SDS011;27356;50.920;5.350;2023-12-14T16:06:53;12.77;;;7.75;;
41667;SDS011;27356;50.920;5.350;2023-12-14T16:09:19;14.68;;;8.75;;
41667;SDS011;27356;50.920;5.350;2023-12-14T16:11:45;16.45;;;8.20;;
41667;SDS011;27356;50.920;5.350;2023-12-14T16:14:11;19.50;;;7.30;;
41667;SDS011;27356;50.920;5.350;2023-12-14T16:16:36;16.67;;;8.73;;
41667;SDS011;27356;50.920;5.350;2023-12-14T16:19:02;16.73;;;7.72;;
41667;SDS011;27356;50.920;5.350;2023-12-14T16:21:33;12.07;;;7.28;;
41667;SDS011;27356;50.920;5.350;2023-12-14T16:24:02;12.15;;;7.25;;
41667;SDS011;27356;50.920;5.350;2023-12-14T16:26:31;15.85;;;7.63;;
41667;SDS011;27356;50.920;5.350;2023-12-14T16:29:03;13.77;;;7.50;;